Airfield :
LOGIN :

Register | Disclaimer

   EN    FR    IT 

 










Legend :    VFR   Marginal VFR   IFR   Intensive IFR   Very Intensive IFR
Visi :
Ceiling :
>= 8 km
>= 3000ft
5 to 8 km
1000 to 3000 ft
1500m to 5 km
500 to 1000 ft
800 to 1500m
200 to 500 ft
< 800m
< 200 ft
Symbols :   Thunderstorms  Fog  Heavy snow  Heavy precipitations  Wind > 20 kt
SIGMETs :     Misc.  Thunderstorms  Icing  Turbulence  Mountain Waves  Volcanic Ashes






- Airport Elevation : 330 ft
- IATA code : LVA


LFOV - Laval-Entrammes

CURRENT METAR :
  • 221030Z AUTO 31010KT 260V360 9999 FEW028 BKN045 OVC054 17/11 Q1017

EXPIRED METARs :
  • 221000Z AUTO 26008KT 230V290 9999 FEW024 BKN045 OVC060 17/12 Q1017
  • 220930Z AUTO 26009KT 230V300 9999 FEW023 OVC054 17/12 Q1016
  • 220900Z AUTO 28009KT 240V300 9999 FEW022 BKN048 OVC054 16/12 Q1016
  • 220830Z AUTO 29007KT 240V320 9999 SCT024 SCT033 OVC049 16/12 Q1016
  • 220800Z AUTO 27010KT 220V290 9999 SCT018 BKN025 BKN032 16/12 Q1016
  • 220730Z AUTO 29010KT 260V320 9999 FEW015 16/12 Q1016
  • 220700Z AUTO 30010KT 9999 FEW015 15/13 Q1016
  • 220630Z AUTO 30008KT 270V330 9999 FEW015 15/13 Q1015
  • 220600Z AUTO 29010KT 260V320 9999 FEW010 SCT041 14/13 Q1015

TAF N/A



MET'MAP, your aeronautical weather chart ! - Copyright ORBIFLY December 2007 - Disclaimer

ORBIFLY MET'MAP TEAM :

Programming & Development : Alexandra Zaïnal
Original concept : Baudouin d'Aumeries
Technical & hardware support : Manuel Goepfert
Assistance : Marc-Olivier Méhu




SOURCES & CREDITS :

   NOAA